HBPKK LSZB-LSZG

Flight info

Callsign HBPKK
Flight time 0h 16m
Altitude 7000
Route VFR LOCAL FLIGHT
Aircraft PA28/L-S/L

Departure

Time 2026-04-27 15:15
Airport Bern Airport (LSZB)

Arrival

Time 2026-04-27 15:31
Airport Grenchen Airfield (LSZG)
Time Latitude Longitude Altitude Speed Heading
2026-04-27 15:10 46.91217 7.50133 1680 ft 0 kts 234°
2026-04-27 15:12 46.91216 7.50132 1680 ft 1 kts 234°
2026-04-27 15:12 46.91187 7.50135 1676 ft 10 kts 138°
2026-04-27 15:13 46.91128 7.50212 1682 ft 12 kts 139°
2026-04-27 15:13 46.91060 7.50299 1682 ft 16 kts 138°
2026-04-27 15:13 46.90973 7.50395 1682 ft 14 kts 136°
2026-04-27 15:13 46.90906 7.50358 1681 ft 12 kts 249°
2026-04-27 15:14 46.90924 7.50310 1687 ft 0 kts 316°
2026-04-27 15:14 46.90930 7.50302 1683 ft 12 kts 322°
2026-04-27 15:14 46.91145 7.50038 1714 ft 62 kts 323°
2026-04-27 15:14 46.91484 7.49605 1952 ft 66 kts 317°
2026-04-27 15:15 46.91849 7.49098 2075 ft 78 kts 318°
2026-04-27 15:15 46.92239 7.48535 2283 ft 83 kts 316°
2026-04-27 15:15 46.92645 7.47922 2526 ft 85 kts 314°
2026-04-27 15:15 46.93113 7.47423 2805 ft 87 kts 354°
2026-04-27 15:16 46.93620 7.48076 2861 ft 111 kts 50°
2026-04-27 15:16 46.94002 7.49043 3033 ft 119 kts 101°
2026-04-27 15:16 46.93513 7.49965 3311 ft 113 kts 135°
2026-04-27 15:16 46.92929 7.50718 3548 ft 114 kts 136°
2026-04-27 15:17 46.92815 7.51791 3733 ft 113 kts 49°
2026-04-27 15:17 46.93387 7.52528 3919 ft 112 kts 55°
2026-04-27 15:17 46.93809 7.53450 4211 ft 105 kts 50°
2026-04-27 15:17 46.94264 7.54412 4313 ft 119 kts 59°
2026-04-27 15:18 46.94820 7.55239 4563 ft 118 kts 25°
2026-04-27 15:18 46.95706 7.55318 4602 ft 130 kts
2026-04-27 15:18 46.96616 7.55300 4692 ft 131 kts
2026-04-27 15:18 46.97507 7.55412 4571 ft 127 kts 10°
2026-04-27 15:19 46.98348 7.55527 4622 ft 116 kts
2026-04-27 15:19 46.99140 7.55610 4538 ft 114 kts
2026-04-27 15:19 46.99979 7.55732 4436 ft 122 kts
2026-04-27 15:19 47.00779 7.55841 4521 ft 114 kts
2026-04-27 15:20 47.01572 7.55976 4561 ft 114 kts 11°
2026-04-27 15:20 47.02356 7.55846 4553 ft 121 kts 339°
2026-04-27 15:20 47.03111 7.55300 4619 ft 118 kts 335°
2026-04-27 15:20 47.03839 7.54741 4657 ft 121 kts 336°
2026-04-27 15:21 47.04576 7.54169 4671 ft 121 kts 335°
2026-04-27 15:21 47.05351 7.53713 4641 ft 123 kts 348°
2026-04-27 15:21 47.06196 7.53426 4614 ft 124 kts 351°
2026-04-27 15:21 47.07038 7.53168 4637 ft 120 kts 352°
2026-04-27 15:22 47.07853 7.52961 4687 ft 116 kts 356°
2026-04-27 15:22 47.08625 7.52866 4725 ft 114 kts
2026-04-27 15:22 47.09443 7.52761 4603 ft 122 kts 347°
2026-04-27 15:22 47.10229 7.52227 4636 ft 125 kts 336°
2026-04-27 15:23 47.11036 7.51594 4601 ft 138 kts 336°
2026-04-27 15:23 47.11917 7.50989 4657 ft 143 kts 339°
2026-04-27 15:23 47.12694 7.50054 4594 ft 156 kts 298°
2026-04-27 15:23 47.12832 7.48480 4624 ft 158 kts 276°
2026-04-27 15:24 47.12889 7.46964 4284 ft 143 kts 276°
2026-04-27 15:24 47.13009 7.45544 3890 ft 140 kts 288°
2026-04-27 15:24 47.13266 7.44163 3491 ft 141 kts 288°
2026-04-27 15:24 47.13520 7.42768 3142 ft 139 kts 288°
2026-04-27 15:25 47.13761 7.41470 3074 ft 125 kts 287°
2026-04-27 15:25 47.14034 7.40150 3173 ft 142 kts 289°
2026-04-27 15:25 47.14491 7.39047 3102 ft 122 kts 334°
2026-04-27 15:25 47.15264 7.38668 2869 ft 115 kts 345°
2026-04-27 15:26 47.16004 7.38267 2601 ft 109 kts 344°
2026-04-27 15:26 47.16671 7.37881 2277 ft 96 kts 351°
2026-04-27 15:26 47.17197 7.38215 2020 ft 95 kts 79°
2026-04-27 15:26 47.17378 7.39229 1893 ft 103 kts 65°
2026-04-27 15:27 47.17671 7.40145 1638 ft 90 kts 67°
2026-04-27 15:27 47.17906 7.40888 1466 ft 75 kts 68°
2026-04-27 15:27 47.18102 7.41510 1413 ft 55 kts 71°
2026-04-27 15:27 47.18242 7.41976 1410 ft 51 kts 68°
2026-04-27 15:28 47.18385 7.42454 1475 ft 55 kts 65°
2026-04-27 15:28 47.18580 7.42998 1690 ft 63 kts 66°
2026-04-27 15:28 47.18798 7.43625 1867 ft 78 kts 63°
2026-04-27 15:28 47.18612 7.44266 2109 ft 89 kts 171°
2026-04-27 15:29 47.17974 7.44364 2381 ft 94 kts 182°
2026-04-27 15:29 47.17529 7.43613 2497 ft 115 kts 241°
2026-04-27 15:29 47.17081 7.42388 2320 ft 150 kts 243°
2026-04-27 15:29 47.16259 7.41464 2415 ft 147 kts 210°
2026-04-27 15:30 47.15845 7.40132 2213 ft 160 kts 284°
2026-04-27 15:30 47.16542 7.39342 2153 ft 115 kts 348°
2026-04-27 15:30 47.17205 7.39124 2051 ft 89 kts
2026-04-27 15:30 47.17559 7.39698 1812 ft 80 kts 78°
2026-04-27 15:31 47.17759 7.40392 1601 ft 71 kts 68°
2026-04-27 15:31 47.17955 7.41043 1442 ft 67 kts 69°
2026-04-27 15:31 47.18125 7.41595 1413 ft 50 kts 70°
2026-04-27 15:31 47.18240 7.41927 1405 ft 10 kts 27°